createdAt,value
2018-11-06T00:02:23.745Z,87.33
2018-11-06T00:04:59.830Z,87.38
2018-11-06T00:07:28.750Z,87.03
2018-11-06T00:09:57.595Z,87.04
2018-11-06T00:12:26.539Z,87.39
2018-11-06T00:14:57.993Z,87.68
2018-11-06T00:17:27.649Z,87.10
2018-11-06T00:19:56.859Z,87.51
2018-11-06T00:22:25.837Z,86.93
2018-11-06T00:24:54.742Z,87.40
2018-11-06T00:27:23.672Z,87.30
2018-11-06T00:29:52.543Z,86.94
2018-11-06T00:32:21.429Z,86.78
2018-11-06T00:34:50.732Z,87.21
2018-11-06T00:37:20.553Z,86.34
2018-11-06T00:39:49.436Z,86.45
2018-11-06T00:42:18.385Z,86.02
2018-11-06T00:44:47.602Z,86.48
2018-11-06T00:47:16.495Z,86.72
2018-11-06T00:49:45.339Z,86.66
2018-11-06T00:52:14.756Z,86.93
2018-11-06T00:54:44.058Z,86.80
2018-11-06T00:57:12.927Z,86.47
2018-11-06T00:59:41.789Z,87.10
2018-11-06T01:02:10.679Z,86.74
2018-11-06T01:04:39.779Z,87.28
2018-11-06T01:07:08.644Z,87.62
2018-11-06T01:09:37.489Z,86.73
2018-11-06T01:12:06.375Z,87.25
2018-11-06T01:14:35.278Z,87.18
2018-11-06T01:17:04.115Z,87.37
2018-11-06T01:19:33.303Z,87.40
2018-11-06T01:22:02.146Z,87.31
2018-11-06T01:24:31.019Z,87.17
2018-11-06T01:26:59.892Z,87.58
2018-11-06T01:29:28.852Z,87.72
2018-11-06T01:31:57.744Z,88.17
2018-11-06T01:34:26.644Z,87.73
2018-11-06T01:36:55.919Z,88.62
2018-11-06T01:39:24.807Z,88.07
2018-11-06T01:41:54.607Z,87.84
2018-11-06T01:44:23.454Z,87.94
2018-11-06T01:46:52.299Z,88.60
2018-11-06T01:49:21.198Z,88.24
2018-11-06T01:51:50.347Z,88.74
2018-11-06T01:54:19.217Z,88.64
2018-11-06T01:56:48.155Z,88.46
2018-11-06T01:59:17.047Z,88.76
2018-11-06T02:01:47.004Z,88.16
2018-11-06T02:04:15.870Z,88.14
2018-11-06T02:06:44.779Z,88.49
2018-11-06T02:09:14.451Z,88.27
2018-11-06T02:11:43.616Z,88.74
2018-11-06T02:14:12.474Z,88.34
2018-11-06T02:16:41.373Z,89.20
2018-11-06T02:19:10.232Z,88.63
2018-11-06T02:21:39.087Z,88.24
2018-11-06T02:24:08.028Z,88.77
2018-11-06T02:26:37.242Z,88.51
2018-11-06T02:29:06.648Z,88.31
2018-11-06T02:31:39.400Z,88.74
2018-11-06T02:34:08.313Z,88.82
2018-11-06T02:36:43.140Z,88.57
2018-11-06T02:39:12.059Z,89.15
2018-11-06T02:41:40.990Z,88.75
2018-11-06T02:44:09.844Z,89.18
2018-11-06T02:46:38.735Z,89.47
2018-11-06T02:49:07.629Z,89.42
2018-11-06T02:51:36.988Z,89.96
2018-11-06T02:54:06.033Z,89.98
2018-11-06T02:56:38.587Z,89.98
2018-11-06T02:59:07.956Z,89.43
2018-11-06T03:01:36.892Z,90.04
2018-11-06T03:04:06.300Z,89.73
2018-11-06T03:06:36.862Z,89.01
2018-11-06T03:09:07.371Z,88.93
2018-11-06T03:11:37.783Z,89.06
2018-11-06T03:14:07.460Z,89.56
2018-11-06T03:16:36.421Z,89.24
2018-11-06T03:19:07.600Z,88.30
2018-11-06T03:21:38.073Z,88.51
2018-11-06T03:24:07.951Z,88.95
2018-11-06T03:26:36.898Z,88.94
2018-11-06T03:29:05.873Z,87.98
2018-11-06T03:31:34.846Z,88.61
2018-11-06T03:34:04.133Z,88.97
2018-11-06T03:36:33.464Z,89.18
2018-11-06T03:39:02.318Z,88.65
2018-11-06T03:41:31.195Z,88.55
2018-11-06T03:44:00.024Z,88.63
2018-11-06T03:46:29.614Z,88.50
2018-11-06T03:48:58.510Z,88.04
2018-11-06T03:51:27.722Z,88.79
2018-11-06T03:53:56.661Z,87.90
2018-11-06T03:56:25.567Z,88.39
2018-11-06T03:58:54.808Z,88.31
2018-11-06T04:01:23.680Z,87.88
2018-11-06T04:03:52.685Z,88.17
2018-11-06T04:06:21.470Z,88.41
2018-11-06T04:08:50.317Z,88.77
2018-11-06T04:11:26.399Z,88.61
2018-11-06T04:13:55.335Z,87.82
2018-11-06T04:16:24.191Z,87.86
2018-11-06T04:18:53.046Z,88.20
2018-11-06T04:21:34.535Z,88.25
2018-11-06T04:24:03.770Z,87.63
2018-11-06T04:26:33.344Z,87.02
2018-11-06T04:29:02.218Z,87.39
2018-11-06T04:31:31.108Z,88.00
2018-11-06T04:33:59.932Z,88.21
2018-11-06T04:36:29.682Z,88.53
2018-11-06T04:38:58.810Z,88.17
2018-11-06T04:41:27.957Z,88.62
2018-11-06T04:44:27.974Z,88.66
2018-11-06T04:46:56.884Z,88.47
2018-11-06T04:49:25.749Z,88.44
2018-11-06T04:51:54.919Z,89.31
2018-11-06T04:54:24.555Z,88.65
2018-11-06T04:56:53.423Z,88.91
2018-11-06T04:59:22.638Z,89.68
2018-11-06T05:01:51.513Z,89.37
2018-11-06T05:04:23.207Z,88.90
2018-11-06T05:06:52.111Z,89.22
2018-11-06T05:09:21.487Z,89.19
2018-11-06T05:11:50.359Z,88.84
2018-11-06T05:14:19.332Z,88.96
2018-11-06T05:16:48.172Z,89.65
2018-11-06T05:19:17.472Z,88.95
2018-11-06T05:21:46.542Z,89.63
2018-11-06T05:24:15.431Z,89.26
2018-11-06T05:26:44.310Z,89.67
2018-11-06T05:29:13.185Z,89.70
2018-11-06T05:37:36.117Z,90.33
2018-11-06T05:40:16.175Z,90.12
2018-11-06T05:42:44.961Z,89.23
2018-11-06T05:48:28.379Z,89.63
2018-11-06T05:50:58.723Z,90.34
2018-11-06T05:53:29.611Z,90.82
2018-11-06T05:55:58.499Z,90.98
2018-11-06T05:58:27.317Z,90.32
2018-11-06T06:01:56.552Z,91.21
2018-11-06T06:04:27.390Z,90.76
2018-11-06T06:06:58.577Z,90.52
2018-11-06T06:09:27.739Z,89.80
2018-11-06T06:11:56.710Z,90.02
2018-11-06T06:14:25.600Z,90.29
2018-11-06T06:16:55.180Z,90.91
2018-11-06T06:19:24.390Z,90.58
2018-11-06T06:21:53.639Z,91.15
2018-11-06T06:24:22.458Z,90.76
2018-11-06T06:26:51.295Z,90.26
2018-11-06T06:29:20.256Z,90.61
2018-11-06T06:31:52.055Z,91.21
2018-11-06T06:34:20.900Z,91.35
2018-11-06T06:36:50.046Z,91.08
2018-11-06T06:39:18.983Z,91.68
2018-11-06T06:41:47.819Z,91.57
2018-11-06T06:44:17.134Z,91.00
2018-11-06T06:46:46.511Z,91.10
2018-11-06T06:49:15.390Z,90.71
2018-11-06T06:51:44.659Z,90.82
2018-11-06T06:54:13.566Z,90.47
2018-11-06T06:56:42.322Z,90.20
2018-11-06T06:59:12.195Z,90.05
2018-11-06T07:01:41.581Z,89.74
2018-11-06T07:04:11.156Z,89.22
2018-11-06T07:06:41.713Z,89.27
2018-11-06T07:09:11.931Z,88.99
2018-11-06T07:11:41.021Z,89.10
2018-11-06T07:14:16.998Z,88.53
2018-11-06T07:16:45.877Z,88.18
2018-11-06T07:19:15.427Z,87.91
2018-11-06T07:21:45.913Z,88.67
2018-11-06T07:24:14.722Z,87.64
2018-11-06T07:26:43.598Z,87.93
2018-11-06T07:29:12.409Z,87.41
2018-11-06T07:31:41.218Z,87.34
2018-11-06T07:34:10.526Z,87.85
2018-11-06T07:36:40.235Z,86.83
2018-11-06T07:39:11.373Z,86.51
2018-11-06T07:41:40.577Z,85.35
2018-11-06T07:44:11.625Z,86.59
2018-11-06T07:46:40.552Z,85.58
2018-11-06T07:49:09.370Z,84.90
2018-11-06T07:51:38.534Z,84.89
2018-11-06T07:54:07.383Z,84.55
2018-11-06T07:56:36.247Z,84.68
2018-11-06T07:59:09.490Z,83.95
2018-11-06T08:01:38.312Z,84.08
2018-11-06T08:04:07.332Z,82.80
2018-11-06T08:06:37.276Z,82.02
2018-11-06T08:09:09.033Z,81.34
2018-11-06T08:11:38.825Z,81.15
2018-11-06T08:14:07.671Z,79.92
2018-11-06T08:16:36.607Z,79.52
2018-11-06T08:19:07.420Z,79.86
2018-11-06T08:21:43.353Z,79.38
2018-11-06T08:24:17.450Z,79.24
2018-11-06T08:26:46.291Z,77.97
2018-11-06T08:29:16.599Z,77.88
2018-11-06T08:31:46.652Z,76.32
2018-11-06T08:34:14.889Z,77.38
2018-11-06T08:36:44.717Z,76.15
2018-11-06T08:39:16.508Z,74.42
2018-11-06T08:41:45.309Z,73.61
2018-11-06T08:44:14.410Z,73.82
2018-11-06T08:46:43.847Z,73.18
2018-11-06T08:49:12.715Z,72.32
2018-11-06T08:51:42.756Z,72.57
2018-11-06T08:54:11.694Z,72.09
2018-11-06T08:56:40.547Z,71.16
2018-11-06T08:59:09.826Z,69.37
2018-11-06T09:01:38.705Z,67.38
2018-11-06T09:04:08.746Z,67.89
2018-11-06T09:06:37.633Z,66.78
2018-11-06T09:09:14.893Z,66.85
2018-11-06T09:11:43.819Z,66.30
2018-11-06T09:14:13.439Z,65.75
2018-11-06T09:16:42.246Z,63.63
2018-11-06T09:19:11.099Z,64.62
2018-11-06T09:21:40.482Z,62.39
2018-11-06T09:24:09.777Z,63.17
2018-11-06T09:26:38.658Z,60.87
2018-11-06T09:29:08.158Z,61.16
2018-11-06T09:31:37.475Z,61.08
2018-11-06T09:34:06.776Z,60.69
2018-11-06T09:36:36.414Z,59.26
2018-11-06T09:39:10.281Z,60.46
2018-11-06T09:41:42.521Z,57.14
2018-11-06T09:44:12.201Z,58.92
2018-11-06T09:46:41.050Z,57.35
2018-11-06T09:49:10.819Z,57.80
2018-11-06T09:51:40.373Z,58.52
2018-11-06T09:54:10.363Z,59.38
2018-11-06T09:56:39.442Z,57.70
2018-11-06T09:59:08.375Z,55.97
2018-11-06T10:01:37.667Z,56.61
2018-11-06T10:04:06.576Z,55.91
2018-11-06T10:06:50.223Z,53.49
2018-11-06T10:09:18.928Z,53.54
2018-11-06T10:11:48.191Z,53.90
2018-11-06T10:14:20.674Z,52.70
2018-11-06T10:16:53.586Z,53.40
2018-11-06T10:19:23.894Z,53.26
2018-11-06T10:21:52.727Z,52.63
2018-11-06T10:24:22.570Z,53.36
2018-11-06T10:26:57.852Z,51.23
2018-11-06T10:29:26.752Z,50.65
2018-11-06T10:31:55.625Z,52.65
2018-11-06T10:34:24.738Z,51.73
2018-11-06T10:36:53.854Z,50.59
2018-11-06T10:39:24.379Z,52.15
2018-11-06T10:41:53.462Z,50.21
2018-11-06T10:44:22.587Z,49.36
2018-11-06T10:46:54.211Z,49.82
2018-11-06T10:50:01.063Z,47.97
2018-11-06T10:52:30.776Z,48.89
2018-11-06T10:55:01.742Z,48.01
2018-11-06T10:57:33.009Z,48.47
2018-11-06T11:00:01.950Z,47.79
2018-11-06T11:02:35.946Z,46.07
2018-11-06T11:05:07.553Z,48.19
2018-11-06T11:07:36.420Z,45.45
2018-11-06T11:10:06.003Z,45.86
2018-11-06T11:12:35.809Z,44.14
2018-11-06T11:15:04.580Z,44.47
2018-11-06T11:17:34.186Z,44.61
2018-11-06T11:20:04.835Z,43.70
2018-11-06T11:22:36.462Z,44.56
2018-11-06T11:25:07.195Z,44.91
2018-11-06T11:27:37.985Z,46.10
2018-11-06T11:30:11.826Z,44.61
2018-11-06T11:32:41.882Z,45.94
2018-11-06T11:35:12.149Z,45.44
2018-11-06T11:37:41.373Z,46.57
2018-11-06T11:40:12.378Z,45.66
2018-11-06T11:42:42.061Z,46.24
2018-11-06T11:45:12.488Z,46.74
2018-11-06T11:47:44.674Z,46.21
2018-11-06T11:50:14.710Z,46.49
2018-11-06T11:52:44.767Z,48.11
2018-11-06T11:55:13.626Z,47.39
2018-11-06T11:57:42.489Z,46.39
2018-11-06T12:00:13.777Z,47.15
2018-11-06T12:02:43.471Z,47.03
2018-11-06T12:05:12.696Z,46.14
2018-11-06T12:07:41.637Z,46.82
2018-11-06T12:10:13.560Z,47.78
2018-11-06T12:12:42.550Z,48.07
2018-11-06T12:15:23.210Z,48.53
2018-11-06T12:17:52.059Z,48.62
2018-11-06T12:20:21.375Z,48.33
2018-11-06T12:22:50.208Z,48.93
2018-11-06T12:25:19.843Z,49.31
2018-11-06T12:27:48.434Z,49.84
2018-11-06T12:30:17.994Z,48.69
2018-11-06T12:32:46.850Z,49.53
2018-11-06T12:35:17.543Z,49.17
2018-11-06T12:37:46.424Z,48.84
2018-11-06T12:40:15.882Z,48.93
2018-11-06T12:42:45.358Z,48.16
2018-11-06T12:45:16.019Z,48.86
2018-11-06T12:47:46.289Z,49.16
2018-11-06T12:50:15.482Z,49.32
2018-11-06T12:52:47.010Z,49.85
2018-11-06T12:55:16.632Z,50.53
2018-11-06T12:57:46.385Z,50.17
2018-11-06T13:00:17.799Z,51.05
2018-11-06T13:02:46.586Z,50.09
2018-11-06T13:05:17.086Z,50.75
2018-11-06T13:07:46.979Z,50.05
2018-11-06T13:10:16.679Z,50.86
2018-11-06T13:12:48.447Z,51.71
2018-11-06T13:15:19.888Z,50.84
2018-11-06T13:17:47.141Z,52.13
2018-11-06T13:20:17.618Z,51.22
2018-11-06T13:22:48.414Z,52.11
2018-11-06T13:25:17.434Z,51.50
2018-11-06T13:27:46.836Z,52.60
2018-11-06T13:30:17.927Z,52.09
2018-11-06T13:32:48.519Z,52.75
2018-11-06T13:35:24.383Z,51.32
2018-11-06T13:38:02.254Z,52.98
2018-11-06T13:40:37.728Z,54.03
2018-11-06T13:43:08.265Z,53.39
2018-11-06T13:45:37.231Z,53.32
2018-11-06T13:48:13.522Z,53.32
2018-11-06T13:50:42.496Z,54.16
2018-11-06T13:53:11.320Z,54.61
2018-11-06T13:55:41.590Z,55.26
2018-11-06T13:58:11.577Z,55.44
2018-11-06T14:00:40.380Z,56.41
2018-11-06T14:03:09.199Z,55.57
2018-11-06T14:05:45.775Z,56.01
2018-11-06T14:08:16.631Z,55.70
2018-11-06T14:10:45.450Z,56.28
2018-11-06T14:13:17.942Z,57.62
2018-11-06T14:15:48.211Z,57.47
2018-11-06T14:18:18.139Z,57.16
2018-11-06T14:20:50.443Z,58.40
2018-11-06T14:23:23.221Z,58.47
2018-11-06T14:25:57.291Z,58.26
2018-11-06T14:28:26.128Z,61.25
2018-11-06T14:30:55.368Z,60.14
2018-11-06T14:33:24.206Z,59.54
2018-11-06T14:35:59.281Z,61.11
2018-11-06T14:38:28.105Z,62.02
2018-11-06T14:40:57.551Z,63.10
2018-11-06T14:43:27.510Z,63.01
2018-11-06T14:45:57.758Z,64.79
2018-11-06T14:48:27.381Z,63.90
2018-11-06T14:50:56.363Z,65.48
2018-11-06T14:53:27.387Z,65.39
2018-11-06T14:55:56.668Z,66.43
2018-11-06T14:58:26.295Z,66.02
2018-11-06T15:04:05.827Z,65.84
2018-11-06T15:06:35.842Z,67.42
2018-11-06T15:09:08.163Z,65.41
2018-11-06T15:11:38.752Z,65.39
2018-11-06T15:14:11.232Z,64.80
2018-11-06T15:16:40.114Z,64.96
2018-11-06T15:19:09.961Z,64.50
2018-11-06T15:21:39.166Z,65.36
2018-11-06T15:24:08.842Z,65.45
2018-11-06T15:26:41.347Z,65.25
2018-11-06T15:29:10.571Z,65.46
2018-11-06T15:31:39.885Z,67.18
2018-11-06T15:34:08.745Z,66.64
2018-11-06T15:36:37.735Z,67.35
2018-11-06T15:39:10.150Z,68.11
2018-11-06T15:41:40.302Z,68.05
2018-11-06T15:44:09.163Z,69.65
2018-11-06T15:46:39.029Z,69.03
2018-11-06T15:49:07.978Z,70.20
2018-11-06T15:51:36.756Z,71.80
2018-11-06T15:54:06.978Z,71.66
2018-11-06T15:56:36.435Z,73.16
2018-11-06T15:59:05.347Z,73.20
2018-11-06T16:01:34.619Z,73.50
2018-11-06T16:04:04.394Z,73.80
2018-11-06T16:06:39.022Z,73.94
2018-11-06T16:09:08.485Z,74.57
2018-11-06T16:11:44.280Z,75.11
2018-11-06T16:14:13.198Z,75.88
2018-11-06T16:16:46.447Z,76.82
2018-11-06T16:19:17.448Z,76.90
2018-11-06T16:21:46.686Z,77.04
2018-11-06T16:24:17.779Z,77.81
2018-11-06T16:26:47.380Z,77.67
2018-11-06T16:29:20.599Z,78.51
2018-11-06T16:31:50.099Z,79.56
2018-11-06T16:34:18.930Z,79.21
2018-11-06T16:36:49.363Z,79.83
2018-11-06T16:39:18.440Z,79.66
2018-11-06T16:41:48.270Z,78.43
2018-11-06T16:44:21.923Z,79.74
2018-11-06T16:46:53.109Z,81.07
2018-11-06T16:49:22.016Z,83.19
2018-11-06T16:51:51.187Z,82.50
2018-11-06T16:54:20.803Z,82.60
2018-11-06T16:56:53.338Z,83.02
2018-11-06T16:59:22.469Z,82.64
2018-11-06T17:02:00.593Z,83.39
2018-11-06T17:04:34.648Z,84.05
2018-11-06T17:07:03.587Z,83.00
2018-11-06T17:09:32.430Z,82.86
2018-11-06T17:12:01.247Z,83.87
2018-11-06T17:14:30.590Z,84.66
2018-11-06T17:16:59.399Z,85.87
2018-11-06T17:19:28.435Z,86.33
2018-11-06T17:21:57.245Z,85.69
2018-11-06T17:24:26.483Z,85.73
2018-11-06T17:26:58.258Z,85.91
2018-11-06T17:29:28.577Z,86.27
2018-11-06T17:31:57.464Z,87.32
2018-11-06T17:34:27.450Z,86.99
2018-11-06T17:36:56.478Z,88.38
2018-11-06T17:39:27.499Z,88.16
2018-11-06T17:41:59.226Z,88.53
2018-11-06T17:44:28.058Z,90.21
2018-11-06T17:46:58.702Z,90.43
2018-11-06T17:49:32.646Z,89.56
2018-11-06T17:53:06.027Z,88.86
2018-11-06T17:55:34.966Z,93.18
2018-11-06T17:58:03.850Z,91.79
2018-11-06T18:00:38.322Z,92.83
2018-11-06T18:03:08.591Z,92.19
2018-11-06T18:05:37.455Z,92.11
2018-11-06T18:08:10.920Z,94.65
2018-11-06T18:10:47.362Z,92.96
2018-11-06T18:13:24.392Z,94.70
2018-11-06T18:15:55.397Z,93.21
2018-11-06T18:18:27.474Z,93.30
2018-11-06T18:20:57.768Z,95.72
2018-11-06T18:23:27.662Z,91.89
2018-11-06T18:25:57.603Z,89.83
2018-11-06T18:28:27.577Z,90.03
2018-11-06T18:30:59.358Z,91.21
2018-11-06T18:33:36.237Z,93.21
2018-11-06T18:36:05.313Z,92.47
2018-11-06T18:38:34.162Z,91.33
2018-11-06T18:41:06.482Z,93.14
2018-11-06T18:43:38.431Z,94.18
2018-11-06T18:46:07.457Z,95.27
2018-11-06T18:48:37.172Z,94.26
2018-11-06T18:51:06.219Z,97.24
2018-11-06T18:53:35.389Z,99.81
2018-11-06T18:56:05.793Z,99.75
2018-11-06T18:58:38.358Z,100.00
2018-11-06T19:01:12.272Z,97.21
2018-11-06T19:03:46.702Z,96.88
2018-11-06T19:06:16.418Z,95.22
2018-11-06T19:08:46.331Z,99.01
2018-11-06T19:11:16.168Z,100.00
2018-11-06T19:13:46.186Z,100.00
2018-11-06T19:16:15.986Z,100.00
2018-11-06T19:18:46.280Z,98.92
2018-11-06T19:21:17.974Z,100.00
2018-11-06T19:23:47.511Z,100.00
2018-11-06T19:26:18.528Z,100.00
2018-11-06T19:28:49.623Z,100.00
2018-11-06T19:31:21.257Z,100.00
2018-11-06T19:33:52.130Z,100.00
2018-11-06T19:36:26.478Z,98.64
2018-11-06T19:38:57.635Z,97.94
2018-11-06T19:41:27.969Z,98.31
2018-11-06T19:43:56.892Z,96.24
2018-11-06T19:46:29.966Z,97.89
2018-11-06T19:48:59.134Z,97.99
2018-11-06T19:51:27.977Z,97.33
2018-11-06T19:53:58.393Z,97.05
2018-11-06T19:56:38.036Z,95.83
2018-11-06T19:59:08.401Z,96.20
2018-11-06T20:01:40.991Z,95.47
2018-11-06T20:04:16.531Z,95.14
2018-11-06T20:06:47.145Z,95.10
2018-11-06T20:09:16.878Z,94.99
2018-11-06T20:11:47.321Z,94.67
2018-11-06T20:14:17.985Z,95.12
2018-11-06T20:16:47.703Z,94.80
2018-11-06T20:19:17.170Z,95.66
2018-11-06T20:21:47.551Z,94.87
2018-11-06T20:24:17.287Z,94.57
2018-11-06T20:26:48.622Z,95.19
2018-11-06T20:29:17.907Z,95.11
2018-11-06T20:31:47.747Z,95.26
2018-11-06T20:34:18.398Z,95.95
2018-11-06T20:36:51.554Z,95.73
2018-11-06T20:39:20.432Z,95.67
2018-11-06T20:41:49.882Z,95.60
2018-11-06T20:44:21.231Z,95.87
2018-11-06T20:46:50.820Z,95.31
2018-11-06T20:49:21.434Z,94.82
2018-11-06T20:51:51.186Z,94.78
2018-11-06T20:54:20.346Z,95.41
2018-11-06T20:56:49.276Z,95.20
2018-11-06T20:59:23.250Z,94.80
2018-11-06T21:01:52.245Z,94.29
2018-11-06T21:04:21.771Z,95.07
2018-11-06T21:06:53.560Z,95.68
2018-11-06T21:12:05.228Z,95.34
2018-11-06T21:14:34.771Z,95.61
2018-11-06T21:17:06.627Z,96.37
2018-11-06T21:19:36.623Z,96.01
2018-11-06T21:22:07.336Z,95.97
2018-11-06T21:24:36.164Z,95.37
2018-11-06T21:27:05.951Z,94.92
2018-11-06T21:29:39.210Z,95.14
2018-11-06T21:32:08.123Z,95.45
2018-11-06T21:34:38.463Z,95.69
2018-11-06T21:37:08.023Z,94.61
2018-11-06T21:39:36.882Z,94.38
2018-11-06T21:42:07.934Z,95.21
2018-11-06T21:44:36.888Z,95.42
2018-11-06T21:47:05.858Z,95.42
2018-11-06T21:49:36.702Z,96.25
2018-11-06T21:52:05.571Z,96.59
2018-11-06T21:54:38.137Z,95.58
2018-11-06T21:57:07.003Z,96.22
2018-11-06T21:59:37.792Z,96.31
2018-11-06T22:02:07.494Z,95.63
2018-11-06T22:04:39.277Z,96.01
2018-11-06T22:07:09.057Z,95.88
2018-11-06T22:09:38.715Z,96.62
2018-11-06T22:12:08.404Z,96.17
2018-11-06T22:14:37.852Z,96.09
2018-11-06T22:17:06.800Z,95.32
2018-11-06T22:19:37.716Z,94.86
2018-11-06T22:22:07.645Z,95.65
2018-11-06T22:24:37.627Z,95.98
2018-11-06T22:27:08.586Z,95.55
2018-11-06T22:29:38.040Z,94.61
2018-11-06T22:32:07.569Z,93.14
2018-11-06T22:34:36.557Z,94.00
2018-11-06T22:37:06.336Z,93.17
2018-11-06T22:39:36.836Z,94.31
2018-11-06T22:42:06.034Z,95.24
2018-11-06T22:44:47.193Z,95.85
2018-11-06T22:47:16.086Z,96.46
2018-11-06T22:49:45.196Z,96.90
2018-11-06T22:52:18.631Z,98.54
2018-11-06T22:54:47.438Z,98.60
2018-11-06T22:57:17.645Z,99.13
2018-11-06T22:59:48.327Z,98.89
2018-11-06T23:02:17.191Z,97.86
2018-11-06T23:04:46.604Z,97.54
2018-11-06T23:07:21.330Z,98.86
2018-11-06T23:09:50.218Z,98.77
2018-11-06T23:12:19.460Z,98.48
2018-11-06T23:14:48.935Z,97.91
2018-11-06T23:17:17.791Z,98.67
2018-11-06T23:19:47.133Z,98.38
2018-11-06T23:22:17.170Z,98.45
2018-11-06T23:24:47.116Z,98.15
2018-11-06T23:27:17.743Z,98.11
2018-11-06T23:29:57.507Z,98.76
2018-11-06T23:32:26.422Z,97.78
2018-11-06T23:34:55.272Z,98.10
2018-11-06T23:37:24.228Z,99.18
2018-11-06T23:39:56.397Z,99.23
2018-11-06T23:42:25.774Z,98.94
2018-11-06T23:44:54.689Z,98.66
2018-11-06T23:47:23.582Z,99.45
2018-11-06T23:49:52.831Z,98.86
2018-11-06T23:52:22.670Z,99.25
2018-11-06T23:54:51.536Z,99.60
2018-11-06T23:57:20.365Z,100.00
2018-11-06T23:59:54.780Z,100.00
